createdAt,value
2019-01-06T00:00:14.629Z,14.73
2019-01-06T00:03:04.552Z,7.27
2019-01-06T00:05:51.591Z,4.00
2019-01-06T00:08:44.309Z,2.30
2019-01-06T00:11:29.617Z,4.47
2019-01-06T00:14:32.579Z,9.17
2019-01-06T00:17:19.685Z,3.47
2019-01-06T00:20:19.529Z,4.70
2019-01-06T00:23:20.883Z,3.57
2019-01-06T00:26:11.124Z,3.73
2019-01-06T00:29:11.534Z,3.03
2019-01-06T00:32:11.101Z,4.87
2019-01-06T00:34:57.578Z,2.27
2019-01-06T00:37:57.686Z,6.77
2019-01-06T00:40:37.634Z,7.93
2019-01-06T00:43:24.313Z,4.23
2019-01-06T00:46:12.134Z,7.80
2019-01-06T00:48:59.533Z,4.70
2019-01-06T00:51:46.618Z,7.70
2019-01-06T00:54:33.369Z,2.93
2019-01-06T00:57:25.317Z,2.77
2019-01-06T01:00:12.641Z,2.40
2019-01-06T01:02:59.629Z,5.40
2019-01-06T01:06:01.497Z,4.93
2019-01-06T01:08:55.821Z,3.77
2019-01-06T01:11:46.172Z,5.70
2019-01-06T01:14:46.685Z,3.97
2019-01-06T01:17:52.765Z,3.63
2019-01-06T01:20:36.885Z,4.03
2019-01-06T01:23:21.996Z,5.97
2019-01-06T01:26:10.630Z,6.30
2019-01-06T01:28:54.838Z,4.23
2019-01-06T01:31:41.877Z,5.80
2019-01-06T01:34:26.320Z,6.63
2019-01-06T01:37:32.678Z,6.37
2019-01-06T01:40:13.101Z,2.57
2019-01-06T01:43:09.398Z,5.43
2019-01-06T01:45:51.019Z,4.77
2019-01-06T01:48:38.061Z,6.60
2019-01-06T01:51:24.349Z,3.43
2019-01-06T01:54:04.229Z,10.47
2019-01-06T01:57:01.257Z,5.47
2019-01-06T01:59:58.917Z,5.93
2019-01-06T02:02:47.188Z,10.73
2019-01-06T02:05:34.322Z,8.07
2019-01-06T02:08:25.423Z,8.33
2019-01-06T02:11:09.649Z,4.30
2019-01-06T02:13:46.611Z,4.13
2019-01-06T02:16:33.697Z,5.67
2019-01-06T02:19:14.297Z,7.40
2019-01-06T02:22:00.873Z,4.73
2019-01-06T02:24:53.030Z,6.13
2019-01-06T02:27:50.257Z,9.27
2019-01-06T02:30:38.092Z,7.17
2019-01-06T02:33:22.090Z,9.93
2019-01-06T02:36:08.672Z,5.13
2019-01-06T02:39:12.251Z,6.63
2019-01-06T02:42:09.046Z,4.77
2019-01-06T02:44:51.347Z,5.37
2019-01-06T02:47:40.340Z,4.80
2019-01-06T02:50:33.414Z,8.73
2019-01-06T02:53:15.686Z,7.87
2019-01-06T02:56:02.153Z,5.07
2019-01-06T02:58:48.791Z,8.70
2019-01-06T03:01:35.757Z,6.27
2019-01-06T03:04:26.586Z,4.63
2019-01-06T03:07:19.353Z,4.13
2019-01-06T03:10:06.077Z,7.57
2019-01-06T03:12:55.719Z,7.60
2019-01-06T03:15:32.501Z,6.50
2019-01-06T03:18:26.327Z,3.70
2019-01-06T03:21:13.509Z,4.43
2019-01-06T03:24:00.113Z,5.47
2019-01-06T03:26:53.229Z,3.63
2019-01-06T03:29:39.804Z,3.47
2019-01-06T03:32:21.264Z,11.37
2019-01-06T03:35:21.233Z,3.93
2019-01-06T03:38:11.867Z,4.27
2019-01-06T03:41:05.720Z,4.90
2019-01-06T03:43:52.521Z,4.67
2019-01-06T03:46:39.640Z,3.77
2019-01-06T03:49:26.697Z,10.70
2019-01-06T03:52:07.584Z,9.20
2019-01-06T03:55:01.513Z,5.30
2019-01-06T03:57:48.628Z,5.77
2019-01-06T04:00:35.730Z,2.10
2019-01-06T04:03:31.986Z,8.07
2019-01-06T04:06:19.034Z,4.90
2019-01-06T04:09:10.209Z,5.80
2019-01-06T04:11:56.781Z,3.83
2019-01-06T04:14:51.549Z,2.77
2019-01-06T04:17:39.503Z,5.20
2019-01-06T04:20:30.559Z,2.57
2019-01-06T04:23:17.001Z,5.30
2019-01-06T04:26:03.873Z,6.13
2019-01-06T04:29:06.601Z,3.13
2019-01-06T04:31:53.482Z,4.43
2019-01-06T04:34:38.492Z,5.57
2019-01-06T04:37:25.254Z,3.60
2019-01-06T04:40:04.930Z,2.27
2019-01-06T04:43:05.378Z,5.27
2019-01-06T04:45:49.827Z,4.20
2019-01-06T04:48:37.687Z,1.10
2019-01-06T04:51:37.189Z,5.97
2019-01-06T04:54:43.837Z,8.47
2019-01-06T04:57:37.995Z,1.73
2019-01-06T05:00:25.521Z,3.97
2019-01-06T05:03:12.309Z,6.00
2019-01-06T05:05:59.380Z,3.67
2019-01-06T05:08:52.529Z,4.57
2019-01-06T05:11:39.446Z,8.03
2019-01-06T05:14:36.657Z,2.97
2019-01-06T05:17:23.326Z,6.17
2019-01-06T05:20:10.167Z,4.13
2019-01-06T05:23:04.473Z,6.97
2019-01-06T05:25:51.026Z,1.90
2019-01-06T05:28:44.696Z,6.23
2019-01-06T05:31:50.982Z,5.20
2019-01-06T05:34:38.131Z,6.47
2019-01-06T05:37:25.010Z,2.90
2019-01-06T05:40:21.965Z,2.47
2019-01-06T05:43:18.909Z,5.37
2019-01-06T05:46:03.791Z,4.00
2019-01-06T05:48:50.571Z,5.90
2019-01-06T05:51:37.664Z,3.50
2019-01-06T05:54:24.064Z,3.90
2019-01-06T05:57:21.477Z,4.83
2019-01-06T06:00:13.953Z,3.80
2019-01-06T06:03:13.018Z,2.93
2019-01-06T06:06:03.089Z,2.53
2019-01-06T06:08:53.434Z,4.27
2019-01-06T06:11:40.278Z,2.10
2019-01-06T06:14:35.815Z,5.27
2019-01-06T06:17:20.425Z,2.20
2019-01-06T06:20:12.197Z,2.57
2019-01-06T06:23:00.088Z,4.47
2019-01-06T06:25:50.929Z,6.97
2019-01-06T06:28:37.866Z,3.03
2019-01-06T06:31:27.953Z,3.83
2019-01-06T06:34:14.637Z,1.90
2019-01-06T06:37:01.833Z,1.93
2019-01-06T06:39:48.709Z,7.53
2019-01-06T06:42:30.337Z,5.67
2019-01-06T06:45:20.719Z,3.37
2019-01-06T06:48:08.874Z,3.30
2019-01-06T06:51:06.978Z,5.10
2019-01-06T06:53:51.177Z,2.70
2019-01-06T06:56:38.157Z,5.43
2019-01-06T06:59:17.363Z,2.90
2019-01-06T07:03:00.978Z,3.03
2019-01-06T07:05:47.703Z,2.20
2019-01-06T07:08:48.117Z,3.83
2019-01-06T07:11:34.489Z,5.97
2019-01-06T07:14:26.195Z,4.40
2019-01-06T07:17:49.337Z,5.73
2019-01-06T07:20:43.918Z,5.40
2019-01-06T07:23:41.112Z,3.00
2019-01-06T07:26:22.642Z,2.07
2019-01-06T07:29:11.409Z,4.63
2019-01-06T07:32:14.606Z,3.47
2019-01-06T07:35:01.304Z,3.90
2019-01-06T07:37:51.949Z,4.93
2019-01-06T07:40:51.850Z,6.40
2019-01-06T07:43:33.343Z,5.57
2019-01-06T07:46:33.633Z,4.33
2019-01-06T07:49:17.214Z,5.17
2019-01-06T07:52:04.392Z,7.87
2019-01-06T07:54:46.736Z,4.77
2019-01-06T07:57:43.990Z,3.87
2019-01-06T08:00:39.306Z,4.20
2019-01-06T08:03:25.933Z,3.53
2019-01-06T08:06:12.789Z,4.57
2019-01-06T08:08:59.745Z,8.30
2019-01-06T08:11:48.209Z,3.33
2019-01-06T08:14:35.250Z,4.53
2019-01-06T08:17:26.091Z,5.00
2019-01-06T08:20:15.969Z,6.03
2019-01-06T08:23:06.954Z,5.83
2019-01-06T08:25:52.393Z,6.20
2019-01-06T08:28:41.359Z,4.37
2019-01-06T08:31:21.629Z,4.97
2019-01-06T08:34:17.126Z,5.20
2019-01-06T08:37:14.677Z,6.27
2019-01-06T08:40:05.789Z,2.83
2019-01-06T08:43:06.035Z,5.00
2019-01-06T08:45:58.869Z,5.93
2019-01-06T08:48:45.689Z,4.43
2019-01-06T08:51:44.006Z,7.47
2019-01-06T08:54:43.699Z,4.87
2019-01-06T08:57:30.365Z,4.93
2019-01-06T09:00:13.433Z,3.07
2019-01-06T09:02:59.898Z,7.63
2019-01-06T09:05:48.334Z,6.33
2019-01-06T09:08:32.393Z,6.27
2019-01-06T09:11:26.045Z,8.60
2019-01-06T09:14:20.021Z,4.33
2019-01-06T09:17:20.275Z,7.67
2019-01-06T09:20:27.228Z,2.17
2019-01-06T09:23:15.185Z,2.53
2019-01-06T09:26:01.522Z,5.30
2019-01-06T09:28:46.001Z,5.80
2019-01-06T09:31:39.360Z,4.73
2019-01-06T09:34:42.718Z,7.10
2019-01-06T09:37:33.161Z,6.17
2019-01-06T09:40:20.032Z,2.80
2019-01-06T09:43:01.593Z,8.27
2019-01-06T09:45:48.495Z,8.33
2019-01-06T09:48:45.456Z,6.70
2019-01-06T09:51:46.109Z,6.43
2019-01-06T09:54:52.452Z,8.73
2019-01-06T09:57:33.350Z,5.03
2019-01-06T10:00:27.286Z,5.03
2019-01-06T10:03:13.918Z,6.47
2019-01-06T10:06:20.181Z,8.27
2019-01-06T10:09:06.461Z,10.10
2019-01-06T10:11:53.180Z,4.83
2019-01-06T10:14:34.088Z,3.97
2019-01-06T10:17:21.073Z,3.67
2019-01-06T10:20:08.160Z,4.03
2019-01-06T10:23:08.126Z,5.90
2019-01-06T10:25:58.959Z,6.03
2019-01-06T10:28:47.166Z,6.47
2019-01-06T10:31:38.658Z,8.73
2019-01-06T10:34:34.817Z,4.13
2019-01-06T10:37:21.605Z,7.73
2019-01-06T10:40:08.329Z,6.03
2019-01-06T10:42:55.625Z,6.20
2019-01-06T10:46:01.769Z,6.93
2019-01-06T10:48:51.653Z,7.80
2019-01-06T10:51:37.898Z,12.33
2019-01-06T10:54:24.489Z,6.40
2019-01-06T10:57:15.411Z,5.87
2019-01-06T11:00:01.883Z,4.47
2019-01-06T11:03:07.998Z,7.03
2019-01-06T11:05:54.929Z,7.17
2019-01-06T11:08:41.053Z,5.97
2019-01-06T11:11:38.074Z,5.77
2019-01-06T11:14:32.056Z,2.50
2019-01-06T11:17:35.569Z,4.80
2019-01-06T11:20:22.569Z,7.93
2019-01-06T11:23:09.479Z,7.63
2019-01-06T11:25:57.501Z,6.13
2019-01-06T11:28:49.042Z,4.30
2019-01-06T11:31:35.834Z,5.60
2019-01-06T11:34:42.220Z,5.97
2019-01-06T11:37:32.904Z,6.80
2019-01-06T11:40:19.322Z,8.40
2019-01-06T11:43:13.058Z,5.47
2019-01-06T11:45:55.770Z,9.17
2019-01-06T11:48:55.922Z,3.73
2019-01-06T11:51:35.645Z,14.03
2019-01-06T11:54:34.767Z,11.67
2019-01-06T11:57:21.505Z,11.97
2019-01-06T12:00:18.601Z,9.13
2019-01-06T12:03:06.872Z,9.53
2019-01-06T12:05:49.725Z,8.73
2019-01-06T12:08:31.754Z,7.10
2019-01-06T12:11:19.601Z,12.30
2019-01-06T12:14:22.873Z,7.67
2019-01-06T12:17:20.743Z,8.47
2019-01-06T12:20:08.746Z,7.87
2019-01-06T12:22:55.815Z,6.47
2019-01-06T12:25:51.141Z,5.53
2019-01-06T12:28:38.217Z,9.67
2019-01-06T12:31:28.877Z,9.53
2019-01-06T12:34:25.769Z,7.40
2019-01-06T12:37:12.854Z,8.43
2019-01-06T12:40:00.679Z,6.77
2019-01-06T12:43:03.913Z,6.87
2019-01-06T12:45:55.441Z,9.13
2019-01-06T12:48:58.631Z,6.60
2019-01-06T12:51:45.221Z,7.20
2019-01-06T12:54:36.661Z,8.00
2019-01-06T12:57:36.024Z,9.77
2019-01-06T13:00:23.257Z,5.83
2019-01-06T13:03:29.583Z,8.00
2019-01-06T13:06:16.557Z,8.67
2019-01-06T13:09:03.233Z,5.07
2019-01-06T13:11:50.846Z,8.93
2019-01-06T13:14:37.755Z,7.30
2019-01-06T13:17:20.485Z,7.97
2019-01-06T13:20:07.370Z,7.67
2019-01-06T13:23:04.533Z,6.43
2019-01-06T13:25:46.621Z,4.33
2019-01-06T13:28:36.212Z,5.07
2019-01-06T13:31:31.289Z,12.50
2019-01-06T13:34:13.834Z,8.23
2019-01-06T13:37:01.689Z,9.13
2019-01-06T13:39:58.817Z,7.03
2019-01-06T13:42:45.274Z,7.73
2019-01-06T13:45:39.337Z,6.33
2019-01-06T13:48:27.141Z,7.83
2019-01-06T13:51:16.900Z,4.53
2019-01-06T13:54:04.885Z,4.87
2019-01-06T13:56:51.746Z,6.10
2019-01-06T13:59:45.775Z,4.70
2019-01-06T14:02:32.301Z,4.67
2019-01-06T14:05:29.229Z,5.30
2019-01-06T14:08:16.042Z,6.93
2019-01-06T14:11:15.809Z,4.37
2019-01-06T14:14:02.245Z,9.63
2019-01-06T14:16:59.217Z,7.67
2019-01-06T14:19:49.932Z,4.70
2019-01-06T14:22:40.734Z,8.07
2019-01-06T14:25:28.653Z,8.20
2019-01-06T14:28:16.465Z,5.70
2019-01-06T14:31:07.574Z,3.50
2019-01-06T14:33:59.842Z,6.77
2019-01-06T14:37:01.550Z,4.93
2019-01-06T14:39:48.021Z,5.23
2019-01-06T14:42:35.254Z,5.67
2019-01-06T14:45:18.491Z,13.63
2019-01-06T14:48:02.138Z,34.77
2019-01-06T14:50:47.717Z,27.57
2019-01-06T14:53:39.921Z,12.97
2019-01-06T14:56:29.022Z,7.03
2019-01-06T14:59:22.730Z,6.90
2019-01-06T15:02:11.362Z,4.30
2019-01-06T15:05:12.794Z,6.77
2019-01-06T15:08:12.377Z,10.20
2019-01-06T15:10:59.278Z,4.87
2019-01-06T15:13:56.245Z,3.03
2019-01-06T15:16:42.806Z,9.37
2019-01-06T15:19:31.201Z,5.67
2019-01-06T15:22:18.309Z,8.60
2019-01-06T15:25:21.673Z,7.17
2019-01-06T15:28:09.874Z,4.77
2019-01-06T15:31:06.433Z,9.13
2019-01-06T15:33:57.280Z,3.37
2019-01-06T15:36:58.907Z,4.00
2019-01-06T15:39:48.802Z,5.93
2019-01-06T15:42:42.965Z,8.23
2019-01-06T15:45:30.935Z,5.43
2019-01-06T15:48:21.305Z,6.33
2019-01-06T15:51:12.937Z,8.23
2019-01-06T15:54:11.273Z,9.93
2019-01-06T15:56:58.351Z,7.93
2019-01-06T15:59:58.476Z,11.20
2019-01-06T16:02:58.927Z,7.27
2019-01-06T16:06:02.073Z,6.60
2019-01-06T16:08:54.627Z,9.23
2019-01-06T16:11:40.476Z,13.33
2019-01-06T16:14:28.092Z,11.87
2019-01-06T16:17:18.214Z,10.07
2019-01-06T16:20:09.649Z,8.33
2019-01-06T16:23:15.677Z,8.43
2019-01-06T16:26:09.773Z,7.87
2019-01-06T16:29:09.810Z,5.90
2019-01-06T16:32:01.233Z,7.07
2019-01-06T16:34:55.218Z,6.43
2019-01-06T16:37:52.993Z,8.00
2019-01-06T16:40:35.589Z,9.10
2019-01-06T16:43:35.973Z,9.73
2019-01-06T16:46:25.383Z,5.53
2019-01-06T16:49:12.473Z,9.43
2019-01-06T16:52:15.813Z,5.27
2019-01-06T16:55:07.801Z,6.83
2019-01-06T16:57:49.825Z,3.80
2019-01-06T17:00:36.613Z,10.23
2019-01-06T17:03:23.483Z,6.40
2019-01-06T17:06:27.992Z,5.77
2019-01-06T17:09:14.791Z,8.67
2019-01-06T17:12:01.485Z,5.37
2019-01-06T17:14:41.649Z,6.07
2019-01-06T17:17:22.404Z,8.00
2019-01-06T17:20:09.357Z,7.27
2019-01-06T17:23:03.170Z,9.07
2019-01-06T17:26:03.784Z,8.10
2019-01-06T17:28:50.497Z,8.83
2019-01-06T17:31:37.272Z,7.30
2019-01-06T17:34:31.277Z,6.47
2019-01-06T17:37:19.143Z,8.03
2019-01-06T17:39:55.274Z,10.27
2019-01-06T17:42:46.589Z,11.27
2019-01-06T17:45:33.749Z,7.33
2019-01-06T17:48:29.292Z,7.90
2019-01-06T17:51:16.685Z,8.57
2019-01-06T17:54:24.166Z,9.57
2019-01-06T17:57:10.439Z,11.50
2019-01-06T18:00:04.130Z,6.20
2019-01-06T18:02:57.841Z,7.87
2019-01-06T18:05:43.240Z,8.67
2019-01-06T18:08:47.118Z,12.70
2019-01-06T18:11:34.221Z,14.17
2019-01-06T18:14:30.821Z,14.90
2019-01-06T18:17:30.765Z,12.97
2019-01-06T18:20:19.003Z,12.87
2019-01-06T18:23:25.342Z,13.00
2019-01-06T18:26:11.945Z,16.97
2019-01-06T18:28:51.689Z,14.13
2019-01-06T18:31:40.197Z,10.47
2019-01-06T18:34:37.405Z,13.17
2019-01-06T18:37:25.853Z,11.37
2019-01-06T18:40:12.541Z,14.60
2019-01-06T18:43:16.144Z,15.07
2019-01-06T18:45:58.053Z,11.70
2019-01-06T18:48:36.362Z,10.57
2019-01-06T18:51:27.538Z,12.23
2019-01-06T18:54:25.215Z,14.37
2019-01-06T18:57:11.227Z,10.83
2019-01-06T19:00:05.398Z,9.93
2019-01-06T19:02:52.173Z,7.77
2019-01-06T19:05:37.093Z,8.97
2019-01-06T19:08:24.154Z,13.20
2019-01-06T19:11:30.594Z,10.07
2019-01-06T19:14:17.211Z,14.23
2019-01-06T19:17:08.385Z,17.97
2019-01-06T19:20:11.409Z,20.20
2019-01-06T19:23:07.415Z,12.70
2019-01-06T19:26:03.291Z,9.07
2019-01-06T19:28:49.247Z,8.53
2019-01-06T19:31:49.253Z,13.87
2019-01-06T19:34:42.516Z,9.47
2019-01-06T19:37:29.166Z,7.20
2019-01-06T19:40:23.426Z,10.50
2019-01-06T19:43:10.021Z,11.87
2019-01-06T19:45:56.719Z,11.20
2019-01-06T19:48:43.681Z,11.67
2019-01-06T19:51:19.873Z,11.27
2019-01-06T19:54:07.829Z,11.80
2019-01-06T19:56:51.197Z,8.37
2019-01-06T19:59:45.028Z,11.50
2019-01-06T20:02:31.610Z,11.53
2019-01-06T20:05:28.602Z,14.20
2019-01-06T20:08:07.698Z,10.47
2019-01-06T20:10:55.526Z,13.50
2019-01-06T20:13:48.306Z,11.37
2019-01-06T20:16:36.121Z,18.27
2019-01-06T20:19:33.481Z,12.87
2019-01-06T20:22:33.745Z,11.63
2019-01-06T20:25:34.343Z,12.73
2019-01-06T20:28:21.061Z,13.57
2019-01-06T20:31:08.273Z,12.23
2019-01-06T20:34:04.436Z,11.23
2019-01-06T20:37:01.577Z,13.30
2019-01-06T20:39:46.057Z,12.60
2019-01-06T20:42:25.779Z,10.53
2019-01-06T20:45:12.785Z,12.23
2019-01-06T20:47:56.917Z,14.37
2019-01-06T20:50:43.557Z,23.67
2019-01-06T20:53:34.770Z,14.83
2019-01-06T20:56:21.682Z,15.23
2019-01-06T20:59:11.358Z,10.87
2019-01-06T21:02:12.601Z,12.67
2019-01-06T21:05:15.965Z,12.87
2019-01-06T21:08:05.084Z,16.53
2019-01-06T21:10:56.359Z,13.77
2019-01-06T21:13:44.216Z,14.83
2019-01-06T21:16:35.391Z,14.77
2019-01-06T21:19:18.469Z,13.90
2019-01-06T21:22:05.068Z,15.80
2019-01-06T21:25:02.289Z,14.60
2019-01-06T21:28:04.345Z,13.50
2019-01-06T21:30:51.291Z,14.53
2019-01-06T21:33:38.182Z,16.03
2019-01-06T21:36:32.101Z,12.13
2019-01-06T21:39:29.101Z,13.50
2019-01-06T21:42:22.926Z,12.03
2019-01-06T21:45:10.840Z,16.47
2019-01-06T21:47:57.833Z,9.90
2019-01-06T21:50:41.625Z,13.40
2019-01-06T21:53:26.077Z,15.00
2019-01-06T21:56:12.542Z,13.50
2019-01-06T21:58:59.261Z,13.53
2019-01-06T22:01:46.577Z,26.33
2019-01-06T22:04:33.989Z,16.40
2019-01-06T22:07:22.205Z,14.03
2019-01-06T22:10:09.289Z,15.13
2019-01-06T22:12:56.043Z,12.27
2019-01-06T22:15:46.825Z,13.23
2019-01-06T22:18:47.809Z,14.60
2019-01-06T22:21:50.805Z,14.73
2019-01-06T22:24:38.659Z,12.00
2019-01-06T22:27:20.877Z,11.50
2019-01-06T22:30:09.082Z,15.03
2019-01-06T22:32:55.743Z,13.20
2019-01-06T22:35:43.434Z,11.97
2019-01-06T22:38:30.126Z,11.87
2019-01-06T22:41:23.809Z,20.03
2019-01-06T22:44:10.321Z,15.00
2019-01-06T22:47:07.418Z,13.57
2019-01-06T22:49:53.828Z,18.17
2019-01-06T22:52:40.881Z,12.93
2019-01-06T22:55:31.945Z,13.57
2019-01-06T22:58:16.825Z,12.70
2019-01-06T23:01:13.657Z,13.93
2019-01-06T23:04:17.293Z,14.57
2019-01-06T23:07:10.350Z,13.77
2019-01-06T23:09:57.169Z,17.33
2019-01-06T23:12:43.919Z,11.47
2019-01-06T23:15:30.840Z,10.63
2019-01-06T23:18:21.888Z,12.03
2019-01-06T23:21:08.753Z,16.47
2019-01-06T23:24:13.310Z,15.67
2019-01-06T23:27:11.917Z,12.37
2019-01-06T23:30:09.109Z,15.40
2019-01-06T23:33:03.031Z,13.97
2019-01-06T23:35:59.761Z,15.67
2019-01-06T23:38:59.141Z,12.80
2019-01-06T23:41:45.934Z,11.53
2019-01-06T23:44:36.769Z,16.57
2019-01-06T23:47:19.661Z,12.70
2019-01-06T23:50:06.393Z,18.50
2019-01-06T23:53:06.962Z,14.87
2019-01-06T23:56:06.729Z,12.33
2019-01-06T23:59:00.755Z,14.67
